sensor_id;sensor_type;location;lat;lon;timestamp;P1;durP1;ratioP1;P2;durP2;ratioP2
19595;SDS011;9945;46.010;8.946;2023-03-12T00:00:57;1.05;;;1.00;;
19595;SDS011;9945;46.010;8.946;2023-03-12T00:03:23;1.42;;;0.80;;
19595;SDS011;9945;46.010;8.946;2023-03-12T00:05:50;0.70;;;0.70;;
19595;SDS011;9945;46.010;8.946;2023-03-12T00:08:17;0.73;;;0.70;;
19595;SDS011;9945;46.010;8.946;2023-03-12T00:10:44;0.88;;;0.88;;
19595;SDS011;9945;46.010;8.946;2023-03-12T00:13:11;0.90;;;0.90;;
19595;SDS011;9945;46.010;8.946;2023-03-12T00:15:39;0.90;;;0.90;;
19595;SDS011;9945;46.010;8.946;2023-03-12T00:18:06;0.95;;;0.95;;
19595;SDS011;9945;46.010;8.946;2023-03-12T00:20:33;0.93;;;0.93;;
19595;SDS011;9945;46.010;8.946;2023-03-12T00:23:00;0.90;;;0.90;;
19595;SDS011;9945;46.010;8.946;2023-03-12T00:25:26;1.30;;;1.20;;
19595;SDS011;9945;46.010;8.946;2023-03-12T00:27:53;1.90;;;1.30;;
19595;SDS011;9945;46.010;8.946;2023-03-12T00:30:20;0.80;;;0.80;;
19595;SDS011;9945;46.010;8.946;2023-03-12T00:32:48;0.90;;;0.90;;
19595;SDS011;9945;46.010;8.946;2023-03-12T00:35:15;1.55;;;1.45;;
19595;SDS011;9945;46.010;8.946;2023-03-12T00:37:42;1.10;;;1.10;;
19595;SDS011;9945;46.010;8.946;2023-03-12T00:40:10;0.95;;;0.93;;
19595;SDS011;9945;46.010;8.946;2023-03-12T00:42:37;0.90;;;0.90;;
19595;SDS011;9945;46.010;8.946;2023-03-12T00:45:04;1.63;;;1.00;;
19595;SDS011;9945;46.010;8.946;2023-03-12T00:47:32;1.75;;;1.50;;
19595;SDS011;9945;46.010;8.946;2023-03-12T00:50:00;1.40;;;1.25;;
19595;SDS011;9945;46.010;8.946;2023-03-12T00:52:27;1.23;;;1.13;;
19595;SDS011;9945;46.010;8.946;2023-03-12T00:54:54;0.95;;;0.95;;
19595;SDS011;9945;46.010;8.946;2023-03-12T00:57:23;1.20;;;1.10;;
19595;SDS011;9945;46.010;8.946;2023-03-12T00:59:49;1.20;;;1.15;;
19595;SDS011;9945;46.010;8.946;2023-03-12T01:02:16;3.67;;;1.40;;
19595;SDS011;9945;46.010;8.946;2023-03-12T01:04:43;1.38;;;1.27;;
19595;SDS011;9945;46.010;8.946;2023-03-12T01:07:12;2.38;;;1.45;;
19595;SDS011;9945;46.010;8.946;2023-03-12T01:09:39;1.80;;;1.67;;
19595;SDS011;9945;46.010;8.946;2023-03-12T01:12:06;1.73;;;1.63;;
19595;SDS011;9945;46.010;8.946;2023-03-12T01:14:33;5.15;;;2.35;;
19595;SDS011;9945;46.010;8.946;2023-03-12T01:17:00;2.28;;;1.90;;
19595;SDS011;9945;46.010;8.946;2023-03-12T01:19:27;2.25;;;1.90;;
19595;SDS011;9945;46.010;8.946;2023-03-12T01:21:53;3.38;;;2.08;;
19595;SDS011;9945;46.010;8.946;2023-03-12T01:24:22;3.88;;;2.33;;
19595;SDS011;9945;46.010;8.946;2023-03-12T01:26:48;2.40;;;2.20;;
19595;SDS011;9945;46.010;8.946;2023-03-12T01:29:15;2.40;;;2.25;;
19595;SDS011;9945;46.010;8.946;2023-03-12T01:31:42;4.32;;;2.70;;
19595;SDS011;9945;46.010;8.946;2023-03-12T01:34:10;4.23;;;3.30;;
19595;SDS011;9945;46.010;8.946;2023-03-12T01:36:37;3.38;;;3.10;;
19595;SDS011;9945;46.010;8.946;2023-03-12T01:39:04;10.13;;;7.93;;
19595;SDS011;9945;46.010;8.946;2023-03-12T01:41:32;7.67;;;6.63;;
19595;SDS011;9945;46.010;8.946;2023-03-12T01:43:59;7.43;;;6.20;;
19595;SDS011;9945;46.010;8.946;2023-03-12T01:46:28;11.85;;;8.75;;
19595;SDS011;9945;46.010;8.946;2023-03-12T01:48:58;11.05;;;4.82;;
19595;SDS011;9945;46.010;8.946;2023-03-12T01:51:32;5.55;;;4.53;;
19595;SDS011;9945;46.010;8.946;2023-03-12T01:54:04;5.27;;;4.67;;
19595;SDS011;9945;46.010;8.946;2023-03-12T01:56:35;5.50;;;4.67;;
19595;SDS011;9945;46.010;8.946;2023-03-12T01:59:06;8.87;;;4.73;;
19595;SDS011;9945;46.010;8.946;2023-03-12T02:01:36;9.00;;;6.22;;
19595;SDS011;9945;46.010;8.946;2023-03-12T02:04:03;9.35;;;7.07;;
19595;SDS011;9945;46.010;8.946;2023-03-12T02:06:33;10.20;;;7.83;;
19595;SDS011;9945;46.010;8.946;2023-03-12T02:09:06;7.50;;;6.70;;
19595;SDS011;9945;46.010;8.946;2023-03-12T02:11:33;10.77;;;7.60;;
19595;SDS011;9945;46.010;8.946;2023-03-12T02:14:01;10.27;;;7.60;;
19595;SDS011;9945;46.010;8.946;2023-03-12T02:16:28;11.17;;;8.30;;
19595;SDS011;9945;46.010;8.946;2023-03-12T02:18:55;13.50;;;7.77;;
19595;SDS011;9945;46.010;8.946;2023-03-12T02:21:26;8.50;;;7.53;;
19595;SDS011;9945;46.010;8.946;2023-03-12T02:24:00;11.20;;;8.20;;
19595;SDS011;9945;46.010;8.946;2023-03-12T02:26:33;11.23;;;8.52;;
19595;SDS011;9945;46.010;8.946;2023-03-12T02:29:02;15.82;;;9.50;;
19595;SDS011;9945;46.010;8.946;2023-03-12T02:31:31;10.15;;;8.15;;
19595;SDS011;9945;46.010;8.946;2023-03-12T02:34:03;11.15;;;8.75;;
19595;SDS011;9945;46.010;8.946;2023-03-12T02:36:30;11.20;;;8.23;;
19595;SDS011;9945;46.010;8.946;2023-03-12T02:38:56;11.60;;;8.88;;
19595;SDS011;9945;46.010;8.946;2023-03-12T02:41:24;10.27;;;8.37;;
19595;SDS011;9945;46.010;8.946;2023-03-12T02:43:57;13.50;;;9.27;;
19595;SDS011;9945;46.010;8.946;2023-03-12T02:46:28;14.03;;;9.87;;
19595;SDS011;9945;46.010;8.946;2023-03-12T02:48:58;11.20;;;9.70;;
19595;SDS011;9945;46.010;8.946;2023-03-12T02:51:26;11.03;;;9.30;;
19595;SDS011;9945;46.010;8.946;2023-03-12T02:53:53;15.17;;;9.83;;
19595;SDS011;9945;46.010;8.946;2023-03-12T02:56:20;15.23;;;10.47;;
19595;SDS011;9945;46.010;8.946;2023-03-12T02:58:48;18.10;;;10.57;;
19595;SDS011;9945;46.010;8.946;2023-03-12T03:01:16;18.00;;;10.57;;
19595;SDS011;9945;46.010;8.946;2023-03-12T03:03:44;15.83;;;10.73;;
19595;SDS011;9945;46.010;8.946;2023-03-12T03:06:12;18.10;;;10.00;;
19595;SDS011;9945;46.010;8.946;2023-03-12T03:08:40;17.17;;;9.53;;
19595;SDS011;9945;46.010;8.946;2023-03-12T03:11:07;14.83;;;10.23;;
19595;SDS011;9945;46.010;8.946;2023-03-12T03:13:34;17.27;;;10.03;;
19595;SDS011;9945;46.010;8.946;2023-03-12T03:16:01;14.10;;;9.70;;
19595;SDS011;9945;46.010;8.946;2023-03-12T03:18:30;13.67;;;10.27;;
19595;SDS011;9945;46.010;8.946;2023-03-12T03:20:58;18.93;;;11.37;;
19595;SDS011;9945;46.010;8.946;2023-03-12T03:23:26;13.97;;;9.97;;
19595;SDS011;9945;46.010;8.946;2023-03-12T03:25:54;13.70;;;10.40;;
19595;SDS011;9945;46.010;8.946;2023-03-12T03:28:22;17.47;;;10.00;;
19595;SDS011;9945;46.010;8.946;2023-03-12T03:30:51;16.90;;;10.13;;
19595;SDS011;9945;46.010;8.946;2023-03-12T03:33:19;15.75;;;9.57;;
19595;SDS011;9945;46.010;8.946;2023-03-12T03:35:47;18.70;;;10.47;;
19595;SDS011;9945;46.010;8.946;2023-03-12T03:38:14;16.33;;;9.80;;
19595;SDS011;9945;46.010;8.946;2023-03-12T03:40:41;11.47;;;8.90;;
19595;SDS011;9945;46.010;8.946;2023-03-12T03:43:08;12.57;;;8.87;;
19595;SDS011;9945;46.010;8.946;2023-03-12T03:45:35;16.97;;;9.37;;
19595;SDS011;9945;46.010;8.946;2023-03-12T03:48:02;15.27;;;8.50;;
19595;SDS011;9945;46.010;8.946;2023-03-12T03:50:29;15.20;;;8.70;;
19595;SDS011;9945;46.010;8.946;2023-03-12T03:52:58;12.80;;;8.10;;
19595;SDS011;9945;46.010;8.946;2023-03-12T03:55:24;12.67;;;8.20;;
19595;SDS011;9945;46.010;8.946;2023-03-12T03:57:51;10.63;;;7.90;;
19595;SDS011;9945;46.010;8.946;2023-03-12T04:00:18;15.07;;;8.23;;
19595;SDS011;9945;46.010;8.946;2023-03-12T04:02:46;13.27;;;7.17;;
19595;SDS011;9945;46.010;8.946;2023-03-12T04:05:13;12.17;;;7.60;;
19595;SDS011;9945;46.010;8.946;2023-03-12T04:07:40;11.10;;;8.13;;
19595;SDS011;9945;46.010;8.946;2023-03-12T04:10:09;12.70;;;7.77;;
19595;SDS011;9945;46.010;8.946;2023-03-12T04:12:36;12.57;;;8.70;;
19595;SDS011;9945;46.010;8.946;2023-03-12T04:15:04;18.00;;;9.03;;
19595;SDS011;9945;46.010;8.946;2023-03-12T04:17:31;14.13;;;9.37;;
19595;SDS011;9945;46.010;8.946;2023-03-12T04:19:58;16.03;;;9.00;;
19595;SDS011;9945;46.010;8.946;2023-03-12T04:22:25;14.47;;;9.07;;
19595;SDS011;9945;46.010;8.946;2023-03-12T04:24:51;12.70;;;8.80;;
19595;SDS011;9945;46.010;8.946;2023-03-12T04:27:20;10.07;;;8.17;;
19595;SDS011;9945;46.010;8.946;2023-03-12T04:29:46;12.30;;;8.17;;
19595;SDS011;9945;46.010;8.946;2023-03-12T04:32:13;13.63;;;8.10;;
19595;SDS011;9945;46.010;8.946;2023-03-12T04:34:40;16.80;;;8.50;;
19595;SDS011;9945;46.010;8.946;2023-03-12T04:37:07;11.17;;;7.53;;
19595;SDS011;9945;46.010;8.946;2023-03-12T04:39:35;26.93;;;7.80;;
19595;SDS011;9945;46.010;8.946;2023-03-12T04:42:02;11.87;;;6.87;;
19595;SDS011;9945;46.010;8.946;2023-03-12T04:44:30;13.67;;;7.63;;
19595;SDS011;9945;46.010;8.946;2023-03-12T04:46:57;11.83;;;7.10;;
19595;SDS011;9945;46.010;8.946;2023-03-12T04:49:25;9.27;;;6.80;;
19595;SDS011;9945;46.010;8.946;2023-03-12T04:51:52;11.37;;;7.00;;
19595;SDS011;9945;46.010;8.946;2023-03-12T04:54:19;9.77;;;7.27;;
19595;SDS011;9945;46.010;8.946;2023-03-12T04:56:46;10.47;;;7.73;;
19595;SDS011;9945;46.010;8.946;2023-03-12T04:59:13;12.00;;;7.40;;
19595;SDS011;9945;46.010;8.946;2023-03-12T05:01:41;11.80;;;8.33;;
19595;SDS011;9945;46.010;8.946;2023-03-12T05:04:09;15.70;;;8.00;;
19595;SDS011;9945;46.010;8.946;2023-03-12T05:06:36;10.33;;;7.73;;
19595;SDS011;9945;46.010;8.946;2023-03-12T05:09:02;14.30;;;8.70;;
19595;SDS011;9945;46.010;8.946;2023-03-12T05:11:29;14.13;;;8.70;;
19595;SDS011;9945;46.010;8.946;2023-03-12T05:13:56;11.93;;;8.17;;
19595;SDS011;9945;46.010;8.946;2023-03-12T05:16:23;16.40;;;8.27;;
19595;SDS011;9945;46.010;8.946;2023-03-12T05:18:51;15.60;;;8.23;;
19595;SDS011;9945;46.010;8.946;2023-03-12T05:21:19;13.50;;;8.63;;
19595;SDS011;9945;46.010;8.946;2023-03-12T05:23:46;15.13;;;7.43;;
19595;SDS011;9945;46.010;8.946;2023-03-12T05:26:14;13.27;;;8.00;;
19595;SDS011;9945;46.010;8.946;2023-03-12T05:28:43;11.60;;;8.17;;
19595;SDS011;9945;46.010;8.946;2023-03-12T05:31:10;10.67;;;7.70;;
19595;SDS011;9945;46.010;8.946;2023-03-12T05:33:37;11.10;;;7.97;;
19595;SDS011;9945;46.010;8.946;2023-03-12T05:36:06;12.70;;;7.60;;
19595;SDS011;9945;46.010;8.946;2023-03-12T05:38:34;14.17;;;7.73;;
19595;SDS011;9945;46.010;8.946;2023-03-12T05:41:01;9.87;;;7.63;;
19595;SDS011;9945;46.010;8.946;2023-03-12T05:43:29;11.33;;;7.97;;
19595;SDS011;9945;46.010;8.946;2023-03-12T05:45:57;11.30;;;8.67;;
19595;SDS011;9945;46.010;8.946;2023-03-12T05:48:25;14.30;;;7.47;;
19595;SDS011;9945;46.010;8.946;2023-03-12T05:50:52;10.27;;;7.67;;
19595;SDS011;9945;46.010;8.946;2023-03-12T05:53:21;10.97;;;7.67;;
19595;SDS011;9945;46.010;8.946;2023-03-12T05:55:48;15.23;;;8.20;;
19595;SDS011;9945;46.010;8.946;2023-03-12T05:58:15;9.33;;;7.90;;
19595;SDS011;9945;46.010;8.946;2023-03-12T06:00:42;15.40;;;7.47;;
19595;SDS011;9945;46.010;8.946;2023-03-12T06:03:10;10.17;;;7.50;;
19595;SDS011;9945;46.010;8.946;2023-03-12T06:05:37;11.47;;;7.93;;
19595;SDS011;9945;46.010;8.946;2023-03-12T06:08:04;14.63;;;7.40;;
19595;SDS011;9945;46.010;8.946;2023-03-12T06:10:33;10.97;;;7.47;;
19595;SDS011;9945;46.010;8.946;2023-03-12T06:13:00;13.83;;;8.47;;
19595;SDS011;9945;46.010;8.946;2023-03-12T06:15:26;12.23;;;7.30;;
19595;SDS011;9945;46.010;8.946;2023-03-12T06:17:53;11.63;;;7.17;;
19595;SDS011;9945;46.010;8.946;2023-03-12T06:20:20;10.00;;;7.23;;
19595;SDS011;9945;46.010;8.946;2023-03-12T06:22:47;12.40;;;7.97;;
19595;SDS011;9945;46.010;8.946;2023-03-12T06:25:14;13.87;;;6.90;;
19595;SDS011;9945;46.010;8.946;2023-03-12T06:27:43;8.37;;;6.63;;
19595;SDS011;9945;46.010;8.946;2023-03-12T06:30:10;11.20;;;6.50;;
19595;SDS011;9945;46.010;8.946;2023-03-12T06:32:37;13.77;;;7.07;;
19595;SDS011;9945;46.010;8.946;2023-03-12T06:35:04;14.23;;;7.73;;
19595;SDS011;9945;46.010;8.946;2023-03-12T06:37:32;26.53;;;9.00;;
19595;SDS011;9945;46.010;8.946;2023-03-12T06:39:58;26.50;;;10.90;;
19595;SDS011;9945;46.010;8.946;2023-03-12T06:42:25;20.37;;;8.50;;
19595;SDS011;9945;46.010;8.946;2023-03-12T06:44:53;12.77;;;7.37;;
19595;SDS011;9945;46.010;8.946;2023-03-12T06:47:20;13.00;;;7.20;;
19595;SDS011;9945;46.010;8.946;2023-03-12T06:49:48;14.97;;;7.60;;
19595;SDS011;9945;46.010;8.946;2023-03-12T06:52:14;16.57;;;6.97;;
19595;SDS011;9945;46.010;8.946;2023-03-12T06:54:41;10.10;;;6.27;;
19595;SDS011;9945;46.010;8.946;2023-03-12T06:57:08;11.33;;;6.33;;
19595;SDS011;9945;46.010;8.946;2023-03-12T06:59:35;17.90;;;7.10;;
19595;SDS011;9945;46.010;8.946;2023-03-12T07:02:03;14.00;;;7.00;;
19595;SDS011;9945;46.010;8.946;2023-03-12T07:04:30;14.17;;;6.43;;
19595;SDS011;9945;46.010;8.946;2023-03-12T07:06:57;10.65;;;6.28;;
19595;SDS011;9945;46.010;8.946;2023-03-12T07:09:24;9.40;;;6.00;;
19595;SDS011;9945;46.010;8.946;2023-03-12T07:11:51;8.47;;;5.73;;
19595;SDS011;9945;46.010;8.946;2023-03-12T07:14:18;11.82;;;6.30;;
19595;SDS011;9945;46.010;8.946;2023-03-12T07:16:45;11.77;;;5.50;;
19595;SDS011;9945;46.010;8.946;2023-03-12T07:19:13;10.30;;;5.70;;
19595;SDS011;9945;46.010;8.946;2023-03-12T07:21:40;16.75;;;6.70;;
19595;SDS011;9945;46.010;8.946;2023-03-12T07:24:07;7.88;;;5.03;;
19595;SDS011;9945;46.010;8.946;2023-03-12T07:26:34;11.70;;;6.10;;
19595;SDS011;9945;46.010;8.946;2023-03-12T07:29:01;8.95;;;5.90;;
19595;SDS011;9945;46.010;8.946;2023-03-12T07:31:29;11.93;;;6.60;;
19595;SDS011;9945;46.010;8.946;2023-03-12T07:33:56;9.20;;;6.72;;
19595;SDS011;9945;46.010;8.946;2023-03-12T07:36:24;11.55;;;5.82;;
19595;SDS011;9945;46.010;8.946;2023-03-12T07:38:51;12.70;;;6.18;;
19595;SDS011;9945;46.010;8.946;2023-03-12T07:41:18;7.97;;;5.63;;
19595;SDS011;9945;46.010;8.946;2023-03-12T07:43:45;7.90;;;5.45;;
19595;SDS011;9945;46.010;8.946;2023-03-12T07:46:12;14.48;;;5.57;;
19595;SDS011;9945;46.010;8.946;2023-03-12T07:48:39;8.68;;;4.70;;
19595;SDS011;9945;46.010;8.946;2023-03-12T07:51:06;9.48;;;5.28;;
19595;SDS011;9945;46.010;8.946;2023-03-12T07:53:34;8.68;;;4.97;;
19595;SDS011;9945;46.010;8.946;2023-03-12T07:56:01;10.07;;;5.35;;
19595;SDS011;9945;46.010;8.946;2023-03-12T07:58:28;10.30;;;4.95;;
19595;SDS011;9945;46.010;8.946;2023-03-12T08:00:55;7.07;;;5.30;;
19595;SDS011;9945;46.010;8.946;2023-03-12T08:03:22;9.95;;;4.97;;
19595;SDS011;9945;46.010;8.946;2023-03-12T08:05:55;8.05;;;4.68;;
19595;SDS011;9945;46.010;8.946;2023-03-12T08:08:24;9.05;;;5.15;;
19595;SDS011;9945;46.010;8.946;2023-03-12T08:10:52;7.13;;;4.60;;
19595;SDS011;9945;46.010;8.946;2023-03-12T08:13:19;10.32;;;4.63;;
19595;SDS011;9945;46.010;8.946;2023-03-12T08:15:48;8.30;;;4.75;;
19595;SDS011;9945;46.010;8.946;2023-03-12T08:18:15;10.45;;;5.07;;
19595;SDS011;9945;46.010;8.946;2023-03-12T08:20:42;9.75;;;4.70;;
19595;SDS011;9945;46.010;8.946;2023-03-12T08:23:10;6.78;;;3.92;;
19595;SDS011;9945;46.010;8.946;2023-03-12T08:25:37;11.45;;;4.57;;
19595;SDS011;9945;46.010;8.946;2023-03-12T08:28:05;8.55;;;4.40;;
19595;SDS011;9945;46.010;8.946;2023-03-12T08:30:32;7.43;;;3.97;;
19595;SDS011;9945;46.010;8.946;2023-03-12T08:32:59;10.70;;;4.60;;
19595;SDS011;9945;46.010;8.946;2023-03-12T08:35:26;7.28;;;3.95;;
19595;SDS011;9945;46.010;8.946;2023-03-12T08:37:53;7.65;;;4.32;;
19595;SDS011;9945;46.010;8.946;2023-03-12T08:40:21;7.63;;;4.13;;
19595;SDS011;9945;46.010;8.946;2023-03-12T08:42:48;6.93;;;3.63;;
19595;SDS011;9945;46.010;8.946;2023-03-12T08:45:16;9.65;;;4.63;;
19595;SDS011;9945;46.010;8.946;2023-03-12T08:47:43;7.30;;;3.90;;
19595;SDS011;9945;46.010;8.946;2023-03-12T08:50:11;8.52;;;4.20;;
19595;SDS011;9945;46.010;8.946;2023-03-12T08:52:40;4.15;;;3.22;;
19595;SDS011;9945;46.010;8.946;2023-03-12T08:55:08;4.65;;;3.50;;
19595;SDS011;9945;46.010;8.946;2023-03-12T08:57:35;10.10;;;3.95;;
19595;SDS011;9945;46.010;8.946;2023-03-12T09:00:02;8.50;;;4.30;;
19595;SDS011;9945;46.010;8.946;2023-03-12T09:02:33;6.70;;;3.53;;
19595;SDS011;9945;46.010;8.946;2023-03-12T09:05:00;9.23;;;4.00;;
19595;SDS011;9945;46.010;8.946;2023-03-12T09:07:27;10.30;;;4.00;;
19595;SDS011;9945;46.010;8.946;2023-03-12T09:09:55;4.90;;;3.55;;
19595;SDS011;9945;46.010;8.946;2023-03-12T09:12:22;6.95;;;3.50;;
19595;SDS011;9945;46.010;8.946;2023-03-12T09:14:50;9.98;;;3.47;;
19595;SDS011;9945;46.010;8.946;2023-03-12T09:17:17;5.47;;;3.20;;
19595;SDS011;9945;46.010;8.946;2023-03-12T09:19:46;8.00;;;3.42;;
19595;SDS011;9945;46.010;8.946;2023-03-12T09:22:12;4.47;;;3.20;;
19595;SDS011;9945;46.010;8.946;2023-03-12T09:24:39;4.97;;;3.53;;
19595;SDS011;9945;46.010;8.946;2023-03-12T09:27:06;9.48;;;3.47;;
19595;SDS011;9945;46.010;8.946;2023-03-12T09:29:33;4.50;;;3.40;;
19595;SDS011;9945;46.010;8.946;2023-03-12T09:32:00;7.53;;;3.33;;
19595;SDS011;9945;46.010;8.946;2023-03-12T09:34:27;5.50;;;3.80;;
19595;SDS011;9945;46.010;8.946;2023-03-12T09:36:55;4.93;;;3.90;;
19595;SDS011;9945;46.010;8.946;2023-03-12T09:39:22;8.10;;;3.63;;
19595;SDS011;9945;46.010;8.946;2023-03-12T09:41:50;9.48;;;3.40;;
19595;SDS011;9945;46.010;8.946;2023-03-12T09:44:18;6.13;;;3.25;;
19595;SDS011;9945;46.010;8.946;2023-03-12T09:46:52;6.13;;;3.10;;
19595;SDS011;9945;46.010;8.946;2023-03-12T09:49:24;5.88;;;3.65;;
19595;SDS011;9945;46.010;8.946;2023-03-12T09:51:57;6.13;;;3.70;;
19595;SDS011;9945;46.010;8.946;2023-03-12T09:54:30;5.03;;;3.13;;
19595;SDS011;9945;46.010;8.946;2023-03-12T09:57:07;5.90;;;3.80;;
19595;SDS011;9945;46.010;8.946;2023-03-12T09:59:37;8.50;;;3.88;;
19595;SDS011;9945;46.010;8.946;2023-03-12T10:02:04;10.10;;;3.70;;
19595;SDS011;9945;46.010;8.946;2023-03-12T10:04:45;6.28;;;3.03;;
19595;SDS011;9945;46.010;8.946;2023-03-12T10:07:22;5.95;;;3.22;;
19595;SDS011;9945;46.010;8.946;2023-03-12T10:10:05;4.00;;;3.03;;
19595;SDS011;9945;46.010;8.946;2023-03-12T10:12:48;2.88;;;2.63;;
19595;SDS011;9945;46.010;8.946;2023-03-12T10:15:31;6.22;;;3.15;;
19595;SDS011;9945;46.010;8.946;2023-03-12T10:18:07;7.95;;;3.80;;
19595;SDS011;9945;46.010;8.946;2023-03-12T10:23:36;5.40;;;3.10;;
19595;SDS011;9945;46.010;8.946;2023-03-12T10:26:11;5.28;;;3.63;;
19595;SDS011;9945;46.010;8.946;2023-03-12T10:28:42;3.20;;;2.90;;
19595;SDS011;9945;46.010;8.946;2023-03-12T10:31:13;2.90;;;2.65;;
19595;SDS011;9945;46.010;8.946;2023-03-12T10:33:45;3.90;;;2.88;;
19595;SDS011;9945;46.010;8.946;2023-03-12T10:36:17;5.85;;;3.40;;
19595;SDS011;9945;46.010;8.946;2023-03-12T10:38:47;3.65;;;2.88;;
19595;SDS011;9945;46.010;8.946;2023-03-12T10:41:14;4.05;;;2.83;;
19595;SDS011;9945;46.010;8.946;2023-03-12T10:43:43;4.20;;;2.88;;
19595;SDS011;9945;46.010;8.946;2023-03-12T10:52:01;4.38;;;2.58;;
19595;SDS011;9945;46.010;8.946;2023-03-12T10:54:33;6.38;;;2.97;;
19595;SDS011;9945;46.010;8.946;2023-03-12T10:57:02;2.90;;;2.50;;
19595;SDS011;9945;46.010;8.946;2023-03-12T10:59:30;6.22;;;2.95;;
19595;SDS011;9945;46.010;8.946;2023-03-12T11:01:59;3.70;;;2.80;;
19595;SDS011;9945;46.010;8.946;2023-03-12T11:04:28;6.65;;;3.00;;
19595;SDS011;9945;46.010;8.946;2023-03-12T11:12:55;3.97;;;2.92;;
19595;SDS011;9945;46.010;8.946;2023-03-12T11:15:25;3.53;;;2.60;;
19595;SDS011;9945;46.010;8.946;2023-03-12T11:18:04;6.18;;;2.90;;
19595;SDS011;9945;46.010;8.946;2023-03-12T11:20:45;2.45;;;2.25;;
19595;SDS011;9945;46.010;8.946;2023-03-12T11:23:13;4.70;;;2.90;;
19595;SDS011;9945;46.010;8.946;2023-03-12T11:25:42;3.38;;;2.63;;
19595;SDS011;9945;46.010;8.946;2023-03-12T11:28:19;2.92;;;2.58;;
19595;SDS011;9945;46.010;8.946;2023-03-12T11:30:50;3.17;;;2.47;;
19595;SDS011;9945;46.010;8.946;2023-03-12T11:33:19;3.30;;;2.90;;
19595;SDS011;9945;46.010;8.946;2023-03-12T11:35:48;4.80;;;3.05;;
19595;SDS011;9945;46.010;8.946;2023-03-12T11:38:27;3.10;;;2.78;;
19595;SDS011;9945;46.010;8.946;2023-03-12T11:41:03;2.95;;;2.35;;
19595;SDS011;9945;46.010;8.946;2023-03-12T11:43:45;3.00;;;2.75;;
19595;SDS011;9945;46.010;8.946;2023-03-12T11:46:26;6.07;;;2.67;;
19595;SDS011;9945;46.010;8.946;2023-03-12T11:49:08;4.80;;;3.20;;
19595;SDS011;9945;46.010;8.946;2023-03-12T11:51:48;5.07;;;2.90;;
19595;SDS011;9945;46.010;8.946;2023-03-12T11:57:34;5.50;;;3.03;;
19595;SDS011;9945;46.010;8.946;2023-03-12T12:00:12;2.63;;;2.40;;
19595;SDS011;9945;46.010;8.946;2023-03-12T12:05:43;3.05;;;2.45;;
19595;SDS011;9945;46.010;8.946;2023-03-12T12:08:27;4.25;;;2.78;;
19595;SDS011;9945;46.010;8.946;2023-03-12T12:11:09;4.30;;;2.65;;
19595;SDS011;9945;46.010;8.946;2023-03-12T12:13:44;3.97;;;2.80;;
19595;SDS011;9945;46.010;8.946;2023-03-12T12:16:22;5.07;;;2.90;;
19595;SDS011;9945;46.010;8.946;2023-03-12T12:19:00;4.15;;;2.65;;
19595;SDS011;9945;46.010;8.946;2023-03-12T12:21:39;6.97;;;2.33;;
19595;SDS011;9945;46.010;8.946;2023-03-12T12:24:17;3.35;;;2.90;;
19595;SDS011;9945;46.010;8.946;2023-03-12T12:26:58;4.78;;;2.60;;
19595;SDS011;9945;46.010;8.946;2023-03-12T12:29:37;4.18;;;2.47;;
19595;SDS011;9945;46.010;8.946;2023-03-12T12:32:22;3.60;;;2.80;;
19595;SDS011;9945;46.010;8.946;2023-03-12T12:35:01;3.67;;;2.63;;
19595;SDS011;9945;46.010;8.946;2023-03-12T12:37:43;3.58;;;2.70;;
19595;SDS011;9945;46.010;8.946;2023-03-12T12:40:16;3.40;;;3.10;;
19595;SDS011;9945;46.010;8.946;2023-03-12T12:42:57;2.78;;;2.55;;
19595;SDS011;9945;46.010;8.946;2023-03-12T12:45:33;4.00;;;3.20;;
19595;SDS011;9945;46.010;8.946;2023-03-12T12:48:06;4.32;;;2.80;;
19595;SDS011;9945;46.010;8.946;2023-03-12T12:50:38;6.53;;;2.63;;
19595;SDS011;9945;46.010;8.946;2023-03-12T12:53:09;2.88;;;2.47;;
19595;SDS011;9945;46.010;8.946;2023-03-12T12:55:42;2.80;;;2.25;;
19595;SDS011;9945;46.010;8.946;2023-03-12T12:58:19;3.95;;;2.50;;
19595;SDS011;9945;46.010;8.946;2023-03-12T13:00:53;4.10;;;2.67;;
19595;SDS011;9945;46.010;8.946;2023-03-12T13:03:24;2.63;;;2.25;;
19595;SDS011;9945;46.010;8.946;2023-03-12T13:05:54;3.22;;;2.63;;
19595;SDS011;9945;46.010;8.946;2023-03-12T13:11:25;2.83;;;2.28;;
19595;SDS011;9945;46.010;8.946;2023-03-12T13:14:14;6.57;;;5.80;;
19595;SDS011;9945;46.010;8.946;2023-03-12T13:16:47;3.70;;;2.92;;
19595;SDS011;9945;46.010;8.946;2023-03-12T13:19:23;2.80;;;2.50;;
19595;SDS011;9945;46.010;8.946;2023-03-12T13:21:58;3.90;;;3.00;;
19595;SDS011;9945;46.010;8.946;2023-03-12T13:24:38;3.35;;;2.58;;
19595;SDS011;9945;46.010;8.946;2023-03-12T13:27:13;2.72;;;2.53;;
19595;SDS011;9945;46.010;8.946;2023-03-12T13:29:45;6.35;;;2.63;;
19595;SDS011;9945;46.010;8.946;2023-03-12T13:35:29;3.20;;;2.50;;
19595;SDS011;9945;46.010;8.946;2023-03-12T13:37:59;4.40;;;2.55;;
19595;SDS011;9945;46.010;8.946;2023-03-12T13:40:33;3.28;;;2.47;;
19595;SDS011;9945;46.010;8.946;2023-03-12T13:46:31;3.78;;;2.90;;
19595;SDS011;9945;46.010;8.946;2023-03-12T13:49:08;5.10;;;2.80;;
19595;SDS011;9945;46.010;8.946;2023-03-12T13:51:46;3.17;;;2.35;;
19595;SDS011;9945;46.010;8.946;2023-03-12T13:54:24;4.75;;;2.58;;
19595;SDS011;9945;46.010;8.946;2023-03-12T13:56:58;3.15;;;2.70;;
19595;SDS011;9945;46.010;8.946;2023-03-12T13:59:28;2.60;;;2.35;;
19595;SDS011;9945;46.010;8.946;2023-03-12T14:01:58;3.58;;;3.13;;
19595;SDS011;9945;46.010;8.946;2023-03-12T14:04:30;5.03;;;3.03;;
19595;SDS011;9945;46.010;8.946;2023-03-12T14:07:10;3.20;;;2.63;;
19595;SDS011;9945;46.010;8.946;2023-03-12T14:10:01;5.07;;;2.63;;
19595;SDS011;9945;46.010;8.946;2023-03-12T14:12:40;4.45;;;2.75;;
19595;SDS011;9945;46.010;8.946;2023-03-12T14:15:16;3.33;;;2.60;;
19595;SDS011;9945;46.010;8.946;2023-03-12T14:17:53;3.08;;;2.72;;
19595;SDS011;9945;46.010;8.946;2023-03-12T14:20:22;3.20;;;2.80;;
19595;SDS011;9945;46.010;8.946;2023-03-12T14:22:53;5.38;;;2.90;;
19595;SDS011;9945;46.010;8.946;2023-03-12T14:25:25;5.07;;;2.65;;
19595;SDS011;9945;46.010;8.946;2023-03-12T14:27:58;5.95;;;2.55;;
19595;SDS011;9945;46.010;8.946;2023-03-12T14:30:28;2.95;;;2.38;;
19595;SDS011;9945;46.010;8.946;2023-03-12T14:33:05;5.43;;;2.67;;
19595;SDS011;9945;46.010;8.946;2023-03-12T14:35:36;5.00;;;2.95;;
19595;SDS011;9945;46.010;8.946;2023-03-12T14:38:12;4.88;;;2.60;;
19595;SDS011;9945;46.010;8.946;2023-03-12T14:40:44;6.38;;;2.72;;
19595;SDS011;9945;46.010;8.946;2023-03-12T14:43:21;3.03;;;2.53;;
19595;SDS011;9945;46.010;8.946;2023-03-12T14:45:50;3.72;;;2.75;;
19595;SDS011;9945;46.010;8.946;2023-03-12T14:48:21;3.13;;;2.83;;
19595;SDS011;9945;46.010;8.946;2023-03-12T14:50:48;2.45;;;2.25;;
19595;SDS011;9945;46.010;8.946;2023-03-12T14:53:19;3.47;;;2.65;;
19595;SDS011;9945;46.010;8.946;2023-03-12T14:58:48;3.53;;;2.65;;
19595;SDS011;9945;46.010;8.946;2023-03-12T15:01:16;3.60;;;2.75;;
19595;SDS011;9945;46.010;8.946;2023-03-12T15:03:45;4.10;;;2.60;;
19595;SDS011;9945;46.010;8.946;2023-03-12T15:06:16;6.15;;;2.83;;
19595;SDS011;9945;46.010;8.946;2023-03-12T15:08:48;2.50;;;2.30;;
19595;SDS011;9945;46.010;8.946;2023-03-12T15:11:18;3.08;;;2.83;;
19595;SDS011;9945;46.010;8.946;2023-03-12T15:13:48;4.43;;;2.70;;
19595;SDS011;9945;46.010;8.946;2023-03-12T15:16:15;3.42;;;2.70;;
19595;SDS011;9945;46.010;8.946;2023-03-12T15:18:42;5.20;;;2.70;;
19595;SDS011;9945;46.010;8.946;2023-03-12T15:21:11;5.10;;;3.13;;
19595;SDS011;9945;46.010;8.946;2023-03-12T15:23:38;2.70;;;2.50;;
19595;SDS011;9945;46.010;8.946;2023-03-12T15:26:12;7.97;;;3.25;;
19595;SDS011;9945;46.010;8.946;2023-03-12T15:28:52;3.35;;;2.30;;
19595;SDS011;9945;46.010;8.946;2023-03-12T15:31:20;5.30;;;2.80;;
19595;SDS011;9945;46.010;8.946;2023-03-12T15:33:58;5.25;;;3.38;;
19595;SDS011;9945;46.010;8.946;2023-03-12T15:36:26;2.88;;;2.38;;
19595;SDS011;9945;46.010;8.946;2023-03-12T15:38:55;3.47;;;3.05;;
19595;SDS011;9945;46.010;8.946;2023-03-12T15:41:27;4.10;;;2.75;;
19595;SDS011;9945;46.010;8.946;2023-03-12T15:44:11;5.45;;;3.42;;